sensor_id;sensor_type;location;lat;lon;timestamp;temperature;humidity
15143;DHT22;7672;50.834;6.286;2023-04-24T00:01:02;13.10;99.90
15143;DHT22;7672;50.834;6.286;2023-04-24T00:03:52;13.20;99.90
15143;DHT22;7672;50.834;6.286;2023-04-24T00:07:04;13.20;99.90
15143;DHT22;7672;50.834;6.286;2023-04-24T00:10:42;13.20;99.90
15143;DHT22;7672;50.834;6.286;2023-04-24T00:13:32;13.20;99.90
15143;DHT22;7672;50.834;6.286;2023-04-24T00:16:24;14.00;99.90
15143;DHT22;7672;50.834;6.286;2023-04-24T00:20:25;13.30;99.90
15143;DHT22;7672;50.834;6.286;2023-04-24T00:23:41;13.30;99.90
15143;DHT22;7672;50.834;6.286;2023-04-24T00:26:50;13.30;99.90
15143;DHT22;7672;50.834;6.286;2023-04-24T00:30:17;13.30;99.90
15143;DHT22;7672;50.834;6.286;2023-04-24T00:33:13;13.30;99.90
15143;DHT22;7672;50.834;6.286;2023-04-24T00:35:40;13.90;99.90
15143;DHT22;7672;50.834;6.286;2023-04-24T00:38:09;12.70;99.90
15143;DHT22;7672;50.834;6.286;2023-04-24T00:40:36;13.30;99.90
15143;DHT22;7672;50.834;6.286;2023-04-24T00:43:03;13.80;99.90
15143;DHT22;7672;50.834;6.286;2023-04-24T00:45:30;13.30;99.90
15143;DHT22;7672;50.834;6.286;2023-04-24T00:47:58;13.20;99.90
15143;DHT22;7672;50.834;6.286;2023-04-24T00:50:26;14.00;99.90
15143;DHT22;7672;50.834;6.286;2023-04-24T00:52:53;13.60;99.90
15143;DHT22;7672;50.834;6.286;2023-04-24T00:55:21;13.80;99.90
15143;DHT22;7672;50.834;6.286;2023-04-24T00:57:48;13.10;99.90
15143;DHT22;7672;50.834;6.286;2023-04-24T01:00:16;13.00;99.90
15143;DHT22;7672;50.834;6.286;2023-04-24T01:02:44;13.40;99.90
15143;DHT22;7672;50.834;6.286;2023-04-24T01:05:13;12.90;99.90
15143;DHT22;7672;50.834;6.286;2023-04-24T01:07:44;12.80;99.90
15143;DHT22;7672;50.834;6.286;2023-04-24T01:10:13;12.90;99.90
15143;DHT22;7672;50.834;6.286;2023-04-24T01:12:41;13.30;99.90
15143;DHT22;7672;50.834;6.286;2023-04-24T01:15:11;12.70;99.90
15143;DHT22;7672;50.834;6.286;2023-04-24T01:17:37;13.30;99.90
15143;DHT22;7672;50.834;6.286;2023-04-24T01:20:06;13.30;99.90
15143;DHT22;7672;50.834;6.286;2023-04-24T01:22:34;12.00;99.90
15143;DHT22;7672;50.834;6.286;2023-04-24T01:25:01;12.20;99.90
15143;DHT22;7672;50.834;6.286;2023-04-24T01:27:28;12.40;99.90
15143;DHT22;7672;50.834;6.286;2023-04-24T01:29:56;12.60;99.90
15143;DHT22;7672;50.834;6.286;2023-04-24T01:32:24;12.20;99.90
15143;DHT22;7672;50.834;6.286;2023-04-24T01:34:53;12.30;99.90
15143;DHT22;7672;50.834;6.286;2023-04-24T01:37:21;11.90;99.90
15143;DHT22;7672;50.834;6.286;2023-04-24T01:39:48;12.50;99.90
15143;DHT22;7672;50.834;6.286;2023-04-24T01:42:16;13.40;99.90
15143;DHT22;7672;50.834;6.286;2023-04-24T01:44:43;12.70;99.90
15143;DHT22;7672;50.834;6.286;2023-04-24T01:47:10;12.20;99.90
15143;DHT22;7672;50.834;6.286;2023-04-24T01:49:38;12.80;99.90
15143;DHT22;7672;50.834;6.286;2023-04-24T01:52:06;12.40;99.90
15143;DHT22;7672;50.834;6.286;2023-04-24T01:54:33;12.70;99.90
15143;DHT22;7672;50.834;6.286;2023-04-24T01:57:00;12.80;99.90
15143;DHT22;7672;50.834;6.286;2023-04-24T01:59:29;11.90;99.90
15143;DHT22;7672;50.834;6.286;2023-04-24T02:01:59;13.10;99.90
15143;DHT22;7672;50.834;6.286;2023-04-24T02:04:26;12.10;99.90
15143;DHT22;7672;50.834;6.286;2023-04-24T02:06:53;12.30;99.90
15143;DHT22;7672;50.834;6.286;2023-04-24T02:09:20;13.80;99.90
15143;DHT22;7672;50.834;6.286;2023-04-24T02:11:47;12.70;99.90
15143;DHT22;7672;50.834;6.286;2023-04-24T02:14:14;12.40;99.90
15143;DHT22;7672;50.834;6.286;2023-04-24T02:16:41;12.40;99.90
15143;DHT22;7672;50.834;6.286;2023-04-24T02:19:09;11.90;99.90
15143;DHT22;7672;50.834;6.286;2023-04-24T02:21:36;12.80;99.90
15143;DHT22;7672;50.834;6.286;2023-04-24T02:24:03;12.10;99.90
15143;DHT22;7672;50.834;6.286;2023-04-24T02:26:29;12.50;99.90
15143;DHT22;7672;50.834;6.286;2023-04-24T02:28:58;12.40;99.90
15143;DHT22;7672;50.834;6.286;2023-04-24T02:31:25;12.70;99.90
15143;DHT22;7672;50.834;6.286;2023-04-24T02:33:52;13.20;99.90
15143;DHT22;7672;50.834;6.286;2023-04-24T02:36:19;13.20;99.90
15143;DHT22;7672;50.834;6.286;2023-04-24T02:38:45;13.60;99.90
15143;DHT22;7672;50.834;6.286;2023-04-24T02:41:12;13.50;99.90
15143;DHT22;7672;50.834;6.286;2023-04-24T02:43:39;13.00;99.90
15143;DHT22;7672;50.834;6.286;2023-04-24T02:46:06;13.30;99.90
15143;DHT22;7672;50.834;6.286;2023-04-24T02:48:33;13.10;99.90
15143;DHT22;7672;50.834;6.286;2023-04-24T02:51:00;12.40;99.90
15143;DHT22;7672;50.834;6.286;2023-04-24T02:53:27;12.30;99.90
15143;DHT22;7672;50.834;6.286;2023-04-24T02:55:54;12.90;99.90
15143;DHT22;7672;50.834;6.286;2023-04-24T02:58:21;12.50;99.90
15143;DHT22;7672;50.834;6.286;2023-04-24T03:00:54;12.40;99.90
15143;DHT22;7672;50.834;6.286;2023-04-24T03:03:22;12.90;99.90
15143;DHT22;7672;50.834;6.286;2023-04-24T03:05:50;12.30;99.90
15143;DHT22;7672;50.834;6.286;2023-04-24T03:08:17;12.90;99.90
15143;DHT22;7672;50.834;6.286;2023-04-24T03:10:44;12.20;99.90
15143;DHT22;7672;50.834;6.286;2023-04-24T03:13:13;13.50;99.90
15143;DHT22;7672;50.834;6.286;2023-04-24T03:15:42;12.30;99.90
15143;DHT22;7672;50.834;6.286;2023-04-24T03:18:09;12.30;99.90
15143;DHT22;7672;50.834;6.286;2023-04-24T03:20:38;13.20;99.90
15143;DHT22;7672;50.834;6.286;2023-04-24T03:23:05;12.00;99.90
15143;DHT22;7672;50.834;6.286;2023-04-24T03:25:32;12.00;99.90
15143;DHT22;7672;50.834;6.286;2023-04-24T03:27:58;13.20;99.90
15143;DHT22;7672;50.834;6.286;2023-04-24T03:30:25;13.50;99.90
15143;DHT22;7672;50.834;6.286;2023-04-24T03:32:52;12.20;99.90
15143;DHT22;7672;50.834;6.286;2023-04-24T03:35:19;12.30;99.90
15143;DHT22;7672;50.834;6.286;2023-04-24T03:37:48;12.30;99.90
15143;DHT22;7672;50.834;6.286;2023-04-24T03:40:15;12.20;99.90
15143;DHT22;7672;50.834;6.286;2023-04-24T03:42:42;12.20;99.90
15143;DHT22;7672;50.834;6.286;2023-04-24T03:45:09;12.10;99.90
15143;DHT22;7672;50.834;6.286;2023-04-24T03:47:36;12.40;99.90
15143;DHT22;7672;50.834;6.286;2023-04-24T03:50:03;12.20;99.90
15143;DHT22;7672;50.834;6.286;2023-04-24T03:54:58;12.20;99.90
15143;DHT22;7672;50.834;6.286;2023-04-24T03:57:25;11.80;99.90
15143;DHT22;7672;50.834;6.286;2023-04-24T03:59:52;12.20;99.90
15143;DHT22;7672;50.834;6.286;2023-04-24T04:02:20;12.10;99.90
15143;DHT22;7672;50.834;6.286;2023-04-24T04:04:47;12.60;99.90
15143;DHT22;7672;50.834;6.286;2023-04-24T04:07:14;12.70;99.90
15143;DHT22;7672;50.834;6.286;2023-04-24T04:09:44;12.00;99.90
15143;DHT22;7672;50.834;6.286;2023-04-24T04:12:11;12.50;99.90
15143;DHT22;7672;50.834;6.286;2023-04-24T04:14:39;11.70;99.90
15143;DHT22;7672;50.834;6.286;2023-04-24T04:17:05;11.70;99.90
15143;DHT22;7672;50.834;6.286;2023-04-24T04:19:32;12.00;99.90
15143;DHT22;7672;50.834;6.286;2023-04-24T04:21:59;11.80;99.90
15143;DHT22;7672;50.834;6.286;2023-04-24T04:24:26;12.10;99.90
15143;DHT22;7672;50.834;6.286;2023-04-24T04:26:53;11.50;99.90
15143;DHT22;7672;50.834;6.286;2023-04-24T04:29:24;11.80;99.90
15143;DHT22;7672;50.834;6.286;2023-04-24T04:31:52;11.60;99.90
15143;DHT22;7672;50.834;6.286;2023-04-24T04:34:19;11.70;99.90
15143;DHT22;7672;50.834;6.286;2023-04-24T04:36:46;11.70;99.90
15143;DHT22;7672;50.834;6.286;2023-04-24T04:39:13;12.50;99.90
15143;DHT22;7672;50.834;6.286;2023-04-24T04:41:44;11.70;99.90
15143;DHT22;7672;50.834;6.286;2023-04-24T04:44:13;11.70;99.90
15143;DHT22;7672;50.834;6.286;2023-04-24T04:46:40;11.60;99.90
15143;DHT22;7672;50.834;6.286;2023-04-24T04:49:08;11.30;99.90
15143;DHT22;7672;50.834;6.286;2023-04-24T04:51:35;11.80;99.90
15143;DHT22;7672;50.834;6.286;2023-04-24T04:54:06;11.70;99.90
15143;DHT22;7672;50.834;6.286;2023-04-24T04:56:34;11.70;99.90
15143;DHT22;7672;50.834;6.286;2023-04-24T04:59:01;11.60;99.90
15143;DHT22;7672;50.834;6.286;2023-04-24T05:01:33;11.70;99.90
15143;DHT22;7672;50.834;6.286;2023-04-24T05:04:00;11.80;99.90
15143;DHT22;7672;50.834;6.286;2023-04-24T05:06:30;11.50;99.90
15143;DHT22;7672;50.834;6.286;2023-04-24T05:08:59;11.60;99.90
15143;DHT22;7672;50.834;6.286;2023-04-24T05:11:26;11.60;99.90
15143;DHT22;7672;50.834;6.286;2023-04-24T05:13:53;11.60;99.90
15143;DHT22;7672;50.834;6.286;2023-04-24T05:16:21;11.60;99.90
15143;DHT22;7672;50.834;6.286;2023-04-24T05:18:55;11.60;99.90
15143;DHT22;7672;50.834;6.286;2023-04-24T05:21:22;11.50;99.90
15143;DHT22;7672;50.834;6.286;2023-04-24T05:23:51;11.60;99.90
15143;DHT22;7672;50.834;6.286;2023-04-24T05:26:22;11.60;99.90
15143;DHT22;7672;50.834;6.286;2023-04-24T05:28:49;11.50;99.90
15143;DHT22;7672;50.834;6.286;2023-04-24T05:31:18;11.40;99.90
15143;DHT22;7672;50.834;6.286;2023-04-24T06:43:27;11.40;99.90
15143;DHT22;7672;50.834;6.286;2023-04-24T06:45:54;11.00;99.90
15143;DHT22;7672;50.834;6.286;2023-04-24T06:48:23;11.40;99.90
15143;DHT22;7672;50.834;6.286;2023-04-24T06:50:52;11.40;99.90
15143;DHT22;7672;50.834;6.286;2023-04-24T06:53:19;11.00;99.90
15143;DHT22;7672;50.834;6.286;2023-04-24T06:55:45;11.30;99.90
15143;DHT22;7672;50.834;6.286;2023-04-24T06:58:13;11.10;99.90
15143;DHT22;7672;50.834;6.286;2023-04-24T07:00:41;11.40;99.90
15143;DHT22;7672;50.834;6.286;2023-04-24T07:03:08;10.90;99.90
15143;DHT22;7672;50.834;6.286;2023-04-24T07:05:35;11.40;99.90
15143;DHT22;7672;50.834;6.286;2023-04-24T07:08:03;11.60;99.90
15143;DHT22;7672;50.834;6.286;2023-04-24T07:10:30;11.90;99.90
15143;DHT22;7672;50.834;6.286;2023-04-24T07:12:57;10.90;99.90
15143;DHT22;7672;50.834;6.286;2023-04-24T07:15:24;11.20;99.90
15143;DHT22;7672;50.834;6.286;2023-04-24T07:17:50;11.20;99.90
15143;DHT22;7672;50.834;6.286;2023-04-24T07:20:17;10.70;99.90
15143;DHT22;7672;50.834;6.286;2023-04-24T07:22:45;11.00;99.90
15143;DHT22;7672;50.834;6.286;2023-04-24T07:25:12;11.10;99.90
15143;DHT22;7672;50.834;6.286;2023-04-24T07:27:39;11.10;99.90
15143;DHT22;7672;50.834;6.286;2023-04-24T07:30:06;11.10;99.90
15143;DHT22;7672;50.834;6.286;2023-04-24T07:32:33;11.10;99.90
15143;DHT22;7672;50.834;6.286;2023-04-24T07:35:01;10.80;99.90
15143;DHT22;7672;50.834;6.286;2023-04-24T07:37:30;11.10;99.90
15143;DHT22;7672;50.834;6.286;2023-04-24T07:39:57;11.20;99.90
15143;DHT22;7672;50.834;6.286;2023-04-24T07:42:24;11.00;99.90
15143;DHT22;7672;50.834;6.286;2023-04-24T07:44:51;11.10;99.90
15143;DHT22;7672;50.834;6.286;2023-04-24T07:47:17;11.00;99.90
15143;DHT22;7672;50.834;6.286;2023-04-24T07:49:44;11.00;99.90
15143;DHT22;7672;50.834;6.286;2023-04-24T07:52:11;11.00;99.90
15143;DHT22;7672;50.834;6.286;2023-04-24T07:54:41;11.00;99.90
15143;DHT22;7672;50.834;6.286;2023-04-24T07:57:09;10.90;99.90
15143;DHT22;7672;50.834;6.286;2023-04-24T07:59:36;10.90;99.90
15143;DHT22;7672;50.834;6.286;2023-04-24T08:02:03;10.90;99.90
15143;DHT22;7672;50.834;6.286;2023-04-24T08:04:30;10.90;99.90
15143;DHT22;7672;50.834;6.286;2023-04-24T08:06:57;10.90;99.90
15143;DHT22;7672;50.834;6.286;2023-04-24T08:09:26;10.90;99.90
15143;DHT22;7672;50.834;6.286;2023-04-24T08:11:56;11.30;99.90
15143;DHT22;7672;50.834;6.286;2023-04-24T08:14:23;11.10;99.90
15143;DHT22;7672;50.834;6.286;2023-04-24T08:16:50;10.80;99.90
15143;DHT22;7672;50.834;6.286;2023-04-24T08:19:16;10.80;99.90
15143;DHT22;7672;50.834;6.286;2023-04-24T08:21:43;10.90;99.90
15143;DHT22;7672;50.834;6.286;2023-04-24T08:24:10;10.90;99.90
15143;DHT22;7672;50.834;6.286;2023-04-24T08:26:37;10.90;99.90
15143;DHT22;7672;50.834;6.286;2023-04-24T08:29:05;10.90;99.90
15143;DHT22;7672;50.834;6.286;2023-04-24T08:31:33;10.90;99.90
15143;DHT22;7672;50.834;6.286;2023-04-24T08:33:59;10.90;99.90
15143;DHT22;7672;50.834;6.286;2023-04-24T08:36:27;10.90;99.90
15143;DHT22;7672;50.834;6.286;2023-04-24T08:39:12;10.90;99.90
15143;DHT22;7672;50.834;6.286;2023-04-24T08:41:44;10.90;99.90
15143;DHT22;7672;50.834;6.286;2023-04-24T08:44:12;10.90;99.90
15143;DHT22;7672;50.834;6.286;2023-04-24T08:46:45;10.90;99.90
15143;DHT22;7672;50.834;6.286;2023-04-24T08:49:17;10.90;99.90
15143;DHT22;7672;50.834;6.286;2023-04-24T08:51:44;11.00;99.90
15143;DHT22;7672;50.834;6.286;2023-04-24T08:54:14;11.00;99.90
15143;DHT22;7672;50.834;6.286;2023-04-24T08:56:43;11.00;99.90
15143;DHT22;7672;50.834;6.286;2023-04-24T08:59:12;11.00;99.90
15143;DHT22;7672;50.834;6.286;2023-04-24T09:01:40;11.00;99.90
15143;DHT22;7672;50.834;6.286;2023-04-24T09:04:09;11.10;99.90
15143;DHT22;7672;50.834;6.286;2023-04-24T09:06:41;11.10;99.90
15143;DHT22;7672;50.834;6.286;2023-04-24T09:09:10;11.10;99.90
15143;DHT22;7672;50.834;6.286;2023-04-24T09:11:38;11.20;99.90
15143;DHT22;7672;50.834;6.286;2023-04-24T09:14:05;11.30;99.90
15143;DHT22;7672;50.834;6.286;2023-04-24T09:16:33;11.30;99.90
15143;DHT22;7672;50.834;6.286;2023-04-24T09:19:02;11.40;99.90
15143;DHT22;7672;50.834;6.286;2023-04-24T09:21:34;11.50;99.90
15143;DHT22;7672;50.834;6.286;2023-04-24T09:24:07;11.60;99.90
15143;DHT22;7672;50.834;6.286;2023-04-24T09:26:40;11.70;99.90
15143;DHT22;7672;50.834;6.286;2023-04-24T09:29:07;11.60;99.90
15143;DHT22;7672;50.834;6.286;2023-04-24T09:31:34;11.60;99.90
15143;DHT22;7672;50.834;6.286;2023-04-24T09:34:03;11.70;99.90
15143;DHT22;7672;50.834;6.286;2023-04-24T09:36:38;11.80;99.90
15143;DHT22;7672;50.834;6.286;2023-04-24T09:39:13;11.80;99.90
15143;DHT22;7672;50.834;6.286;2023-04-24T09:41:47;11.80;99.90
15143;DHT22;7672;50.834;6.286;2023-04-24T09:46:52;11.90;99.90
15143;DHT22;7672;50.834;6.286;2023-04-24T09:49:26;12.00;99.90
15143;DHT22;7672;50.834;6.286;2023-04-24T09:52:10;12.00;99.90
15143;DHT22;7672;50.834;6.286;2023-04-24T09:54:39;12.10;99.90
15143;DHT22;7672;50.834;6.286;2023-04-24T09:57:08;12.20;99.90
15143;DHT22;7672;50.834;6.286;2023-04-24T09:59:42;12.20;99.90
15143;DHT22;7672;50.834;6.286;2023-04-24T10:02:18;12.30;99.90
15143;DHT22;7672;50.834;6.286;2023-04-24T10:04:55;12.40;99.90
15143;DHT22;7672;50.834;6.286;2023-04-24T10:07:26;12.60;99.90
15143;DHT22;7672;50.834;6.286;2023-04-24T10:09:53;12.90;99.90
15143;DHT22;7672;50.834;6.286;2023-04-24T10:12:21;13.20;99.90
15143;DHT22;7672;50.834;6.286;2023-04-24T10:15:05;13.60;99.90
15143;DHT22;7672;50.834;6.286;2023-04-24T10:17:36;13.90;99.90
15143;DHT22;7672;50.834;6.286;2023-04-24T10:20:07;14.10;99.90
15143;DHT22;7672;50.834;6.286;2023-04-24T10:22:40;14.20;99.90
15143;DHT22;7672;50.834;6.286;2023-04-24T10:25:07;14.80;99.90
15143;DHT22;7672;50.834;6.286;2023-04-24T10:27:36;14.40;99.90
15143;DHT22;7672;50.834;6.286;2023-04-24T10:30:05;14.50;99.90
15143;DHT22;7672;50.834;6.286;2023-04-24T10:32:33;14.50;99.90
15143;DHT22;7672;50.834;6.286;2023-04-24T10:35:00;14.80;99.90
15143;DHT22;7672;50.834;6.286;2023-04-24T10:37:27;14.50;99.90
15143;DHT22;7672;50.834;6.286;2023-04-24T10:39:55;14.50;99.90
15143;DHT22;7672;50.834;6.286;2023-04-24T10:42:22;15.20;99.90
15143;DHT22;7672;50.834;6.286;2023-04-24T10:44:49;14.70;99.90
15143;DHT22;7672;50.834;6.286;2023-04-24T10:47:19;14.40;99.90
15143;DHT22;7672;50.834;6.286;2023-04-24T10:49:58;15.10;99.90
15143;DHT22;7672;50.834;6.286;2023-04-24T10:52:44;15.80;99.90
15143;DHT22;7672;50.834;6.286;2023-04-24T10:58:43;16.30;99.90
15143;DHT22;7672;50.834;6.286;2023-04-24T11:01:29;17.30;99.90
15143;DHT22;7672;50.834;6.286;2023-04-24T11:03:59;17.50;99.90
15143;DHT22;7672;50.834;6.286;2023-04-24T11:06:36;17.70;99.90
15143;DHT22;7672;50.834;6.286;2023-04-24T11:09:05;18.00;99.90
15143;DHT22;7672;50.834;6.286;2023-04-24T11:11:35;18.10;99.90
15143;DHT22;7672;50.834;6.286;2023-04-24T11:14:05;18.10;99.90
15143;DHT22;7672;50.834;6.286;2023-04-24T11:16:43;18.10;99.90
15143;DHT22;7672;50.834;6.286;2023-04-24T11:19:25;18.10;99.90
15143;DHT22;7672;50.834;6.286;2023-04-24T11:22:00;18.00;99.90
15143;DHT22;7672;50.834;6.286;2023-04-24T11:24:39;17.90;99.90
15143;DHT22;7672;50.834;6.286;2023-04-24T11:27:17;17.80;99.90
15143;DHT22;7672;50.834;6.286;2023-04-24T11:32:29;17.60;99.90
15143;DHT22;7672;50.834;6.286;2023-04-24T11:35:04;17.80;99.90
15143;DHT22;7672;50.834;6.286;2023-04-24T11:37:48;17.70;99.90
15143;DHT22;7672;50.834;6.286;2023-04-24T11:40:20;18.10;99.90
15143;DHT22;7672;50.834;6.286;2023-04-24T11:42:51;17.90;99.90
15143;DHT22;7672;50.834;6.286;2023-04-24T11:45:26;18.10;99.90
15143;DHT22;7672;50.834;6.286;2023-04-24T11:47:58;18.10;99.90
15143;DHT22;7672;50.834;6.286;2023-04-24T11:50:27;18.30;99.90
15143;DHT22;7672;50.834;6.286;2023-04-24T11:52:54;18.30;99.90
15143;DHT22;7672;50.834;6.286;2023-04-24T11:55:22;18.60;99.90
15143;DHT22;7672;50.834;6.286;2023-04-24T11:57:58;18.70;99.90
15143;DHT22;7672;50.834;6.286;2023-04-24T12:00:30;18.60;99.90
15143;DHT22;7672;50.834;6.286;2023-04-24T12:03:08;18.70;99.90
15143;DHT22;7672;50.834;6.286;2023-04-24T12:05:37;19.10;99.90
15143;DHT22;7672;50.834;6.286;2023-04-24T12:08:07;18.90;99.90
15143;DHT22;7672;50.834;6.286;2023-04-24T12:10:34;19.00;99.90
15143;DHT22;7672;50.834;6.286;2023-04-24T12:13:02;19.20;99.90
15143;DHT22;7672;50.834;6.286;2023-04-24T12:15:32;19.30;99.90
15143;DHT22;7672;50.834;6.286;2023-04-24T12:17:58;19.20;99.90
15143;DHT22;7672;50.834;6.286;2023-04-24T12:20:32;19.60;99.90
15143;DHT22;7672;50.834;6.286;2023-04-24T12:23:02;19.60;99.90
15143;DHT22;7672;50.834;6.286;2023-04-24T12:25:31;19.70;99.90
15143;DHT22;7672;50.834;6.286;2023-04-24T12:30:47;19.40;99.90
15143;DHT22;7672;50.834;6.286;2023-04-24T12:33:21;19.40;99.90
15143;DHT22;7672;50.834;6.286;2023-04-24T12:35:51;19.30;99.90
15143;DHT22;7672;50.834;6.286;2023-04-24T12:38:23;19.20;99.90
15143;DHT22;7672;50.834;6.286;2023-04-24T12:41:03;18.80;99.90
15143;DHT22;7672;50.834;6.286;2023-04-24T12:43:31;18.70;99.90
15143;DHT22;7672;50.834;6.286;2023-04-24T12:45:58;18.40;99.90
15143;DHT22;7672;50.834;6.286;2023-04-24T12:48:28;18.20;99.90
15143;DHT22;7672;50.834;6.286;2023-04-24T12:50:59;18.00;99.90
15143;DHT22;7672;50.834;6.286;2023-04-24T12:53:28;18.20;99.90
15143;DHT22;7672;50.834;6.286;2023-04-24T12:55:58;17.80;99.90
15143;DHT22;7672;50.834;6.286;2023-04-24T12:58:25;18.00;99.90
15143;DHT22;7672;50.834;6.286;2023-04-24T13:00:52;17.80;99.90
15143;DHT22;7672;50.834;6.286;2023-04-24T13:03:19;17.90;99.90
15143;DHT22;7672;50.834;6.286;2023-04-24T13:05:46;18.20;99.90
15143;DHT22;7672;50.834;6.286;2023-04-24T13:08:13;17.90;99.90
15143;DHT22;7672;50.834;6.286;2023-04-24T13:10:40;18.10;99.90
15143;DHT22;7672;50.834;6.286;2023-04-24T13:13:08;17.40;99.90
15143;DHT22;7672;50.834;6.286;2023-04-24T13:15:35;17.10;99.90
15143;DHT22;7672;50.834;6.286;2023-04-24T13:18:08;17.20;99.90
15143;DHT22;7672;50.834;6.286;2023-04-24T13:20:38;17.70;99.90
15143;DHT22;7672;50.834;6.286;2023-04-24T13:23:08;17.80;99.90
15143;DHT22;7672;50.834;6.286;2023-04-24T13:25:36;17.70;99.90
15143;DHT22;7672;50.834;6.286;2023-04-24T13:28:07;17.50;99.90
15143;DHT22;7672;50.834;6.286;2023-04-24T13:30:34;17.10;99.90
15143;DHT22;7672;50.834;6.286;2023-04-24T13:33:01;16.50;99.90
15143;DHT22;7672;50.834;6.286;2023-04-24T13:35:29;17.00;99.90
15143;DHT22;7672;50.834;6.286;2023-04-24T13:37:57;16.90;99.90
15143;DHT22;7672;50.834;6.286;2023-04-24T13:40:27;17.30;99.90
15143;DHT22;7672;50.834;6.286;2023-04-24T13:42:54;17.70;99.90
15143;DHT22;7672;50.834;6.286;2023-04-24T13:45:21;18.00;99.90
15143;DHT22;7672;50.834;6.286;2023-04-24T13:47:51;17.50;99.90
15143;DHT22;7672;50.834;6.286;2023-04-24T13:50:19;17.50;99.90
15143;DHT22;7672;50.834;6.286;2023-04-24T13:52:47;18.30;99.90
15143;DHT22;7672;50.834;6.286;2023-04-24T13:55:14;17.70;99.90
15143;DHT22;7672;50.834;6.286;2023-04-24T13:57:40;17.80;99.90
15143;DHT22;7672;50.834;6.286;2023-04-24T14:00:10;17.80;99.90
15143;DHT22;7672;50.834;6.286;2023-04-24T14:02:38;17.80;99.90
15143;DHT22;7672;50.834;6.286;2023-04-24T14:05:06;18.40;99.90
15143;DHT22;7672;50.834;6.286;2023-04-24T14:07:33;17.80;99.90
15143;DHT22;7672;50.834;6.286;2023-04-24T14:10:03;17.90;99.90
15143;DHT22;7672;50.834;6.286;2023-04-24T14:12:31;17.90;99.90
15143;DHT22;7672;50.834;6.286;2023-04-24T14:14:58;17.90;99.90
15143;DHT22;7672;50.834;6.286;2023-04-24T14:17:27;18.20;99.90
15143;DHT22;7672;50.834;6.286;2023-04-24T14:19:54;18.00;99.90
15143;DHT22;7672;50.834;6.286;2023-04-24T14:22:25;18.30;99.90
15143;DHT22;7672;50.834;6.286;2023-04-24T14:24:52;18.10;99.90
15143;DHT22;7672;50.834;6.286;2023-04-24T14:27:20;18.20;99.90
15143;DHT22;7672;50.834;6.286;2023-04-24T14:29:47;18.10;99.90
15143;DHT22;7672;50.834;6.286;2023-04-24T14:32:14;18.10;99.90
15143;DHT22;7672;50.834;6.286;2023-04-24T14:34:41;18.10;99.90
15143;DHT22;7672;50.834;6.286;2023-04-24T14:37:10;18.60;99.90
15143;DHT22;7672;50.834;6.286;2023-04-24T14:39:42;18.40;99.90
15143;DHT22;7672;50.834;6.286;2023-04-24T14:42:15;18.10;99.90
15143;DHT22;7672;50.834;6.286;2023-04-24T14:44:43;18.10;99.90
15143;DHT22;7672;50.834;6.286;2023-04-24T14:47:12;18.40;99.90
15143;DHT22;7672;50.834;6.286;2023-04-24T14:49:39;18.20;99.90
15143;DHT22;7672;50.834;6.286;2023-04-24T14:52:08;18.50;99.90
15143;DHT22;7672;50.834;6.286;2023-04-24T14:54:36;18.00;99.90
15143;DHT22;7672;50.834;6.286;2023-04-24T14:57:05;18.30;99.90
15143;DHT22;7672;50.834;6.286;2023-04-24T14:59:32;18.80;99.90
15143;DHT22;7672;50.834;6.286;2023-04-24T15:01:59;18.10;99.90
15143;DHT22;7672;50.834;6.286;2023-04-24T15:04:41;18.00;99.90
15143;DHT22;7672;50.834;6.286;2023-04-24T15:07:08;18.30;99.90
15143;DHT22;7672;50.834;6.286;2023-04-24T15:09:45;18.60;99.90
15143;DHT22;7672;50.834;6.286;2023-04-24T15:12:13;18.10;99.90
15143;DHT22;7672;50.834;6.286;2023-04-24T15:14:40;17.60;99.90
15143;DHT22;7672;50.834;6.286;2023-04-24T15:17:07;17.80;99.90
15143;DHT22;7672;50.834;6.286;2023-04-24T15:19:34;17.90;99.90
15143;DHT22;7672;50.834;6.286;2023-04-24T15:22:01;17.90;99.90
15143;DHT22;7672;50.834;6.286;2023-04-24T15:24:28;17.90;99.90
15143;DHT22;7672;50.834;6.286;2023-04-24T15:26:55;17.90;99.90
15143;DHT22;7672;50.834;6.286;2023-04-24T15:29:25;17.90;99.90
15143;DHT22;7672;50.834;6.286;2023-04-24T15:31:53;17.90;99.90
15143;DHT22;7672;50.834;6.286;2023-04-24T15:34:20;17.90;99.90
15143;DHT22;7672;50.834;6.286;2023-04-24T15:36:47;17.80;99.90
15143;DHT22;7672;50.834;6.286;2023-04-24T15:39:14;17.70;99.90
15143;DHT22;7672;50.834;6.286;2023-04-24T15:41:41;17.80;99.90
15143;DHT22;7672;50.834;6.286;2023-04-24T15:44:08;17.70;99.90
15143;DHT22;7672;50.834;6.286;2023-04-24T15:46:35;17.30;99.90
15143;DHT22;7672;50.834;6.286;2023-04-24T15:49:02;17.60;99.90
15143;DHT22;7672;50.834;6.286;2023-04-24T15:51:29;17.60;99.90
15143;DHT22;7672;50.834;6.286;2023-04-24T15:53:57;17.50;99.90
15143;DHT22;7672;50.834;6.286;2023-04-24T15:56:23;17.40;99.90
15143;DHT22;7672;50.834;6.286;2023-04-24T15:58:50;17.40;99.90
15143;DHT22;7672;50.834;6.286;2023-04-24T16:01:17;17.40;99.90
15143;DHT22;7672;50.834;6.286;2023-04-24T16:03:44;17.30;99.90
15143;DHT22;7672;50.834;6.286;2023-04-24T16:06:12;17.50;99.90
15143;DHT22;7672;50.834;6.286;2023-04-24T16:08:39;17.20;99.90
15143;DHT22;7672;50.834;6.286;2023-04-24T16:11:06;17.20;99.90
15143;DHT22;7672;50.834;6.286;2023-04-24T16:13:33;17.20;99.90
15143;DHT22;7672;50.834;6.286;2023-04-24T16:16:00;17.20;99.90
15143;DHT22;7672;50.834;6.286;2023-04-24T16:18:27;17.30;99.90
15143;DHT22;7672;50.834;6.286;2023-04-24T16:20:54;17.10;99.90
15143;DHT22;7672;50.834;6.286;2023-04-24T16:23:20;17.30;99.90
15143;DHT22;7672;50.834;6.286;2023-04-24T16:25:47;17.50;99.90
15143;DHT22;7672;50.834;6.286;2023-04-24T16:28:14;17.30;99.90
15143;DHT22;7672;50.834;6.286;2023-04-24T16:30:41;17.30;99.90
15143;DHT22;7672;50.834;6.286;2023-04-24T16:33:07;17.30;99.90
15143;DHT22;7672;50.834;6.286;2023-04-24T16:35:36;17.30;99.90
15143;DHT22;7672;50.834;6.286;2023-04-24T16:38:03;17.30;99.90
15143;DHT22;7672;50.834;6.286;2023-04-24T16:40:30;17.30;99.90
15143;DHT22;7672;50.834;6.286;2023-04-24T16:42:57;17.20;99.90
15143;DHT22;7672;50.834;6.286;2023-04-24T16:45:24;17.20;99.90
15143;DHT22;7672;50.834;6.286;2023-04-24T16:47:50;17.20;99.90
15143;DHT22;7672;50.834;6.286;2023-04-24T16:50:17;17.20;99.90
15143;DHT22;7672;50.834;6.286;2023-04-24T16:52:44;17.10;99.90
15143;DHT22;7672;50.834;6.286;2023-04-24T16:55:11;17.10;99.90
15143;DHT22;7672;50.834;6.286;2023-04-24T16:57:38;17.00;99.90
15143;DHT22;7672;50.834;6.286;2023-04-24T17:00:05;17.00;99.90
15143;DHT22;7672;50.834;6.286;2023-04-24T17:02:33;16.90;99.90
15143;DHT22;7672;50.834;6.286;2023-04-24T17:05:00;16.80;99.90
15143;DHT22;7672;50.834;6.286;2023-04-24T17:07:27;16.80;99.90
15143;DHT22;7672;50.834;6.286;2023-04-24T17:09:53;16.70;99.90
15143;DHT22;7672;50.834;6.286;2023-04-24T17:12:21;16.60;99.90
15143;DHT22;7672;50.834;6.286;2023-04-24T17:14:48;16.60;99.90
15143;DHT22;7672;50.834;6.286;2023-04-24T17:17:15;16.50;99.90
15143;DHT22;7672;50.834;6.286;2023-04-24T17:19:41;16.40;99.90
15143;DHT22;7672;50.834;6.286;2023-04-24T17:22:08;16.40;99.90
15143;DHT22;7672;50.834;6.286;2023-04-24T17:24:35;16.30;99.90